Terminal Aerodrome Forecast
Issued by NWS Jackson, MS

Home | Current Version | Previous Version | Text Only | Print | Product List | Glossary On
Versions: 1 2 3 4 5 6 7 8 9 10 11 12 13 14 15 16 17 18 19 20 21 22 23
000
FTUS44 KJAN 052000 AAA
TAFMEI
TAF AMD
KMEI 052041Z 0521/0618 35015G24KT 6SM -FZRAPL BR OVC014
     FM052200 36018G25KT P6SM SCT015 BKN110
     FM060000 36013G19KT P6SM SCT120
     FM060400 36010KT P6SM SKC=

USA.gov is the U.S. government's official web portal to all federal, state and local government web resources and services.